createdAt,value
2023-04-21T00:00:14.039Z,29.38
2023-04-21T00:02:41.442Z,27.98
2023-04-21T00:05:12.801Z,31.20
2023-04-21T00:07:40.474Z,29.63
2023-04-21T00:10:08.851Z,33.17
2023-04-21T00:12:35.644Z,31.10
2023-04-21T00:15:05.931Z,29.90
2023-04-21T00:17:32.605Z,29.98
2023-04-21T00:19:59.719Z,32.30
2023-04-21T00:22:26.376Z,33.00
2023-04-21T00:24:53.046Z,32.03
2023-04-21T00:27:22.167Z,32.95
2023-04-21T00:29:48.825Z,31.88
2023-04-21T00:32:16.215Z,34.15
2023-04-21T00:34:43.004Z,33.47
2023-04-21T00:37:09.648Z,31.17
2023-04-21T00:39:38.564Z,34.25
2023-04-21T00:42:05.302Z,33.92
2023-04-21T00:44:34.344Z,30.58
2023-04-21T00:47:03.533Z,32.55
2023-04-21T00:49:30.443Z,33.10
2023-04-21T00:51:57.965Z,34.13
2023-04-21T00:54:27.704Z,34.75
2023-04-21T00:56:55.277Z,31.42
2023-04-21T00:59:22.037Z,32.47
2023-04-21T01:01:48.960Z,31.55
2023-04-21T01:04:16.013Z,32.72
2023-04-21T01:06:43.524Z,36.00
2023-04-21T01:09:13.342Z,34.35
2023-04-21T01:11:40.244Z,33.92
2023-04-21T01:14:09.930Z,31.20
2023-04-21T01:16:37.460Z,38.10
2023-04-21T01:19:06.504Z,38.33
2023-04-21T01:21:40.623Z,39.90
2023-04-21T01:24:07.550Z,36.67
2023-04-21T01:26:34.176Z,36.80
2023-04-21T01:29:03.336Z,35.17
2023-04-21T01:31:30.152Z,36.60
2023-04-21T01:33:56.925Z,37.28
2023-04-21T01:36:23.637Z,37.10
2023-04-21T01:38:52.426Z,41.22
2023-04-21T01:41:19.130Z,38.15
2023-04-21T01:43:45.892Z,36.55
2023-04-21T01:46:12.573Z,36.42
2023-04-21T01:48:39.300Z,41.53
2023-04-21T01:51:06.016Z,40.60
2023-04-21T01:53:32.940Z,39.80
2023-04-21T01:55:59.724Z,39.03
2023-04-21T01:58:26.348Z,37.08
2023-04-21T02:00:53.066Z,37.80
2023-04-21T02:03:19.943Z,36.63
2023-04-21T02:05:50.643Z,37.75
2023-04-21T02:08:17.789Z,40.05
2023-04-21T02:10:46.884Z,40.22
2023-04-21T02:13:15.725Z,44.42
2023-04-21T02:15:44.673Z,46.65
2023-04-21T02:18:14.922Z,39.58
2023-04-21T02:20:44.038Z,40.95
2023-04-21T02:23:10.890Z,40.80
2023-04-21T02:25:37.621Z,38.53
2023-04-21T02:28:04.489Z,44.33
2023-04-21T02:30:34.359Z,39.10
2023-04-21T02:33:03.563Z,38.72
2023-04-21T02:35:31.077Z,37.67
2023-04-21T02:37:57.702Z,39.53
2023-04-21T02:40:24.602Z,38.63
2023-04-21T02:42:51.297Z,38.60
2023-04-21T02:45:17.991Z,39.00
2023-04-21T02:47:44.644Z,40.83
2023-04-21T02:50:16.460Z,39.78
2023-04-21T02:52:43.088Z,39.75
2023-04-21T02:55:09.836Z,41.88
2023-04-21T02:57:36.534Z,39.47
2023-04-21T03:00:04.844Z,38.03
2023-04-21T03:02:31.714Z,43.38
2023-04-21T03:05:00.611Z,43.53
2023-04-21T03:07:27.330Z,41.15
2023-04-21T03:09:53.955Z,40.60
2023-04-21T03:12:20.844Z,38.88
2023-04-21T03:14:47.794Z,44.78
2023-04-21T03:17:16.767Z,39.80
2023-04-21T03:19:45.815Z,42.72
2023-04-21T03:22:12.437Z,43.75
2023-04-21T03:24:41.300Z,45.40
2023-04-21T03:27:09.856Z,47.83
2023-04-21T03:29:37.618Z,50.95
2023-04-21T03:32:06.652Z,45.80
2023-04-21T03:34:33.297Z,49.17
2023-04-21T03:36:59.896Z,47.97
2023-04-21T03:39:26.749Z,46.83
2023-04-21T03:41:55.783Z,52.38
2023-04-21T03:44:24.893Z,52.13
2023-04-21T03:46:53.979Z,49.75
2023-04-21T03:49:21.328Z,47.63
2023-04-21T03:51:48.271Z,51.67
2023-04-21T03:54:15.197Z,52.88
2023-04-21T03:56:41.930Z,50.72
2023-04-21T03:59:08.571Z,52.33
2023-04-21T04:01:35.469Z,48.25
2023-04-21T04:04:02.450Z,50.28
2023-04-21T04:06:29.429Z,51.00
2023-04-21T04:08:56.118Z,50.53
2023-04-21T04:11:22.781Z,48.63
2023-04-21T04:13:51.633Z,48.90
2023-04-21T04:16:20.597Z,44.63
2023-04-21T04:18:47.252Z,47.63
2023-04-21T04:21:16.878Z,48.95
2023-04-21T04:23:44.361Z,48.40
2023-04-21T04:26:11.337Z,51.17
2023-04-21T04:28:41.198Z,50.88
2023-04-21T04:31:07.935Z,45.97
2023-04-21T04:33:34.601Z,48.60
2023-04-21T04:36:04.062Z,50.00
2023-04-21T04:38:30.697Z,47.30
2023-04-21T04:41:02.126Z,45.60
2023-04-21T04:43:29.380Z,42.33
2023-04-21T04:45:55.991Z,44.67
2023-04-21T04:48:25.395Z,43.40
2023-04-21T04:50:54.690Z,36.67
2023-04-21T04:53:21.351Z,39.35
2023-04-21T04:55:48.218Z,35.90
2023-04-21T04:58:15.482Z,37.20
2023-04-21T05:00:42.226Z,40.47
2023-04-21T05:03:09.180Z,33.72
2023-04-21T05:05:35.907Z,39.08
2023-04-21T05:08:02.618Z,34.38
2023-04-21T05:10:31.643Z,38.55
2023-04-21T05:12:58.309Z,32.47
2023-04-21T05:15:25.056Z,34.10
2023-04-21T05:17:51.750Z,34.97
2023-04-21T05:20:18.493Z,33.90
2023-04-21T05:22:45.287Z,37.80
2023-04-21T05:25:15.605Z,33.22
2023-04-21T05:27:43.074Z,32.17
2023-04-21T05:30:10.499Z,37.72
2023-04-21T05:32:37.701Z,35.95
2023-04-21T05:35:07.669Z,33.97
2023-04-21T05:37:34.354Z,35.03
2023-04-21T05:40:01.117Z,35.90
2023-04-21T05:42:27.814Z,36.60
2023-04-21T05:44:55.216Z,34.60
2023-04-21T05:47:21.908Z,36.78
2023-04-21T05:49:53.423Z,31.30
2023-04-21T05:52:21.752Z,31.98
2023-04-21T05:54:48.622Z,32.13
2023-04-21T05:57:18.090Z,27.27
2023-04-21T05:59:44.855Z,29.02
2023-04-21T06:02:12.153Z,31.95
2023-04-21T06:04:39.133Z,30.17
2023-04-21T06:07:10.432Z,23.60
2023-04-21T06:09:40.227Z,25.58
2023-04-21T06:12:09.446Z,29.85
2023-04-21T06:14:38.305Z,30.50
2023-04-21T06:17:05.162Z,25.55
2023-04-21T06:19:38.187Z,27.73
2023-04-21T06:22:04.855Z,29.65
2023-04-21T06:24:34.635Z,28.73
2023-04-21T06:27:01.778Z,28.90
2023-04-21T06:29:28.440Z,27.42
2023-04-21T06:31:55.154Z,31.42
2023-04-21T06:34:22.102Z,34.13
2023-04-21T06:36:48.999Z,38.33
2023-04-21T06:39:15.644Z,33.83
2023-04-21T06:41:42.347Z,36.50
2023-04-21T06:44:13.846Z,39.50
2023-04-21T06:46:41.499Z,38.20
2023-04-21T06:49:11.820Z,43.55
2023-04-21T06:51:41.155Z,43.47
2023-04-21T06:54:12.592Z,41.72
2023-04-21T06:56:39.278Z,40.47
2023-04-21T06:59:06.267Z,41.25
2023-04-21T07:01:33.202Z,42.03
2023-04-21T07:04:02.775Z,40.15
2023-04-21T07:06:29.504Z,39.53
2023-04-21T07:08:56.304Z,40.78
2023-04-21T07:11:23.373Z,39.72
2023-04-21T07:13:50.058Z,41.42
2023-04-21T07:16:19.005Z,44.00
2023-04-21T07:18:45.805Z,38.50
2023-04-21T07:21:12.818Z,40.05
2023-04-21T07:23:39.538Z,42.55
2023-04-21T07:26:06.289Z,39.40
2023-04-21T07:28:33.106Z,38.90
2023-04-21T07:31:01.550Z,38.80
2023-04-21T07:33:29.717Z,38.00
2023-04-21T07:35:56.461Z,34.03
2023-04-21T07:38:25.608Z,37.78
2023-04-21T07:40:52.357Z,33.92
2023-04-21T07:43:19.893Z,36.83
2023-04-21T07:45:46.713Z,37.85
2023-04-21T07:48:13.465Z,33.22
2023-04-21T07:50:41.353Z,28.58
2023-04-21T07:53:08.024Z,30.60
2023-04-21T07:55:37.108Z,33.53
2023-04-21T07:58:10.496Z,33.75
2023-04-21T08:00:39.486Z,38.15
2023-04-21T08:03:09.008Z,30.00
2023-04-21T08:05:40.133Z,27.88
2023-04-21T08:08:10.493Z,26.20
2023-04-21T08:10:48.480Z,28.70
2023-04-21T08:13:15.782Z,30.52
2023-04-21T08:15:42.567Z,28.25
2023-04-21T08:18:09.623Z,27.20
2023-04-21T08:20:36.475Z,27.40
2023-04-21T08:23:03.491Z,22.17
2023-04-21T08:25:31.026Z,24.45
2023-04-21T08:28:00.172Z,22.38
2023-04-21T08:30:29.669Z,20.75
2023-04-21T08:32:56.338Z,20.05
2023-04-21T08:35:23.258Z,18.92
2023-04-21T08:37:51.585Z,20.55
2023-04-21T08:40:19.714Z,22.15
2023-04-21T08:42:47.026Z,19.60
2023-04-21T08:45:13.695Z,19.77
2023-04-21T08:47:42.198Z,17.63
2023-04-21T08:50:13.748Z,20.98
2023-04-21T08:52:40.555Z,17.02
2023-04-21T08:55:07.799Z,19.15
2023-04-21T08:57:34.534Z,19.35
2023-04-21T09:00:06.485Z,17.38
2023-04-21T09:02:59.571Z,18.52
2023-04-21T09:05:32.966Z,17.80
2023-04-21T09:08:11.598Z,18.13
2023-04-21T09:10:53.322Z,17.10
2023-04-21T09:13:30.118Z,16.58
2023-04-21T09:15:56.987Z,17.52
2023-04-21T09:18:35.122Z,18.25
2023-04-21T09:21:13.973Z,22.00
2023-04-21T09:23:52.666Z,21.70
2023-04-21T09:26:23.095Z,19.75
2023-04-21T09:28:52.249Z,17.35
2023-04-21T09:31:20.097Z,18.42
2023-04-21T09:36:24.264Z,17.08
2023-04-21T09:39:24.326Z,17.15
2023-04-21T09:41:48.435Z,16.05
2023-04-21T09:44:18.186Z,17.02
2023-04-21T09:46:50.004Z,16.63
2023-04-21T09:49:18.421Z,19.17
2023-04-21T09:54:29.621Z,18.50
2023-04-21T09:56:59.272Z,16.48
2023-04-21T09:59:29.327Z,16.48
2023-04-21T10:02:01.363Z,18.77
2023-04-21T10:04:31.974Z,17.00
2023-04-21T10:07:00.760Z,16.35
2023-04-21T10:09:37.037Z,16.45
2023-04-21T10:12:09.190Z,17.85
2023-04-21T10:14:36.932Z,17.20
2023-04-21T10:17:06.388Z,14.30
2023-04-21T10:19:39.943Z,14.85
2023-04-21T10:22:09.220Z,16.60
2023-04-21T10:24:41.273Z,12.93
2023-04-21T10:27:11.674Z,15.02
2023-04-21T10:29:55.406Z,15.50
2023-04-21T10:32:42.802Z,18.25
2023-04-21T10:35:15.430Z,16.02
2023-04-21T10:37:42.642Z,14.30
2023-04-21T10:40:43.921Z,15.48
2023-04-21T10:43:49.845Z,16.08
2023-04-21T10:46:40.343Z,14.38
2023-04-21T10:49:21.294Z,19.33
2023-04-21T10:52:04.028Z,15.52
2023-04-21T10:54:52.539Z,15.05
2023-04-21T10:57:23.123Z,15.38
2023-04-21T10:59:49.912Z,18.08
2023-04-21T11:02:18.650Z,16.02
2023-04-21T11:04:48.679Z,14.23
2023-04-21T11:07:26.191Z,15.43
2023-04-21T11:10:01.421Z,13.23
2023-04-21T11:12:30.337Z,10.57
2023-04-21T11:14:57.518Z,13.98
2023-04-21T11:17:25.119Z,13.18
2023-04-21T11:19:56.479Z,14.45
2023-04-21T11:22:28.010Z,12.93
2023-04-21T11:24:56.735Z,15.70
2023-04-21T11:27:26.105Z,11.80
2023-04-21T11:29:55.664Z,14.65
2023-04-21T11:32:24.888Z,16.55
2023-04-21T11:34:51.745Z,12.77
2023-04-21T11:37:29.985Z,12.77
2023-04-21T11:39:58.442Z,13.27
2023-04-21T11:42:27.650Z,14.35
2023-04-21T11:44:56.395Z,14.50
2023-04-21T11:47:25.514Z,15.77
2023-04-21T11:49:59.581Z,14.57
2023-04-21T11:52:28.499Z,12.55
2023-04-21T11:55:00.209Z,15.02
2023-04-21T11:57:28.867Z,14.55
2023-04-21T11:59:59.284Z,15.02
2023-04-21T12:02:30.979Z,12.13
2023-04-21T12:05:07.884Z,13.25
2023-04-21T12:07:43.173Z,11.45
2023-04-21T12:10:14.146Z,9.20
2023-04-21T12:12:42.012Z,11.73
2023-04-21T12:15:10.580Z,6.97
2023-04-21T12:17:48.652Z,9.60
2023-04-21T12:20:19.685Z,7.70
2023-04-21T12:22:49.440Z,8.10
2023-04-21T12:25:16.277Z,8.63
2023-04-21T12:27:49.636Z,7.80
2023-04-21T12:30:17.128Z,8.48
2023-04-21T12:32:43.871Z,8.55
2023-04-21T12:35:13.373Z,8.07
2023-04-21T12:37:40.464Z,9.65
2023-04-21T12:40:08.188Z,9.02
2023-04-21T12:42:37.509Z,10.13
2023-04-21T12:45:05.967Z,10.40
2023-04-21T12:47:32.848Z,11.77
2023-04-21T12:50:01.893Z,8.85
2023-04-21T12:52:30.779Z,10.02
2023-04-21T12:54:57.566Z,10.55
2023-04-21T12:57:24.298Z,11.57
2023-04-21T12:59:51.106Z,11.43
2023-04-21T13:02:17.920Z,11.50
2023-04-21T13:04:44.808Z,9.10
2023-04-21T13:07:11.738Z,7.68
2023-04-21T13:09:38.743Z,6.82
2023-04-21T13:12:08.055Z,7.50
2023-04-21T13:14:34.881Z,6.70
2023-04-21T13:17:01.781Z,8.10
2023-04-21T13:19:31.337Z,5.78
2023-04-21T13:21:58.267Z,13.50
2023-04-21T13:24:26.744Z,11.77
2023-04-21T13:26:53.579Z,8.27
2023-04-21T13:29:22.809Z,8.18
2023-04-21T13:31:49.690Z,9.10
2023-04-21T13:34:16.499Z,9.75
2023-04-21T13:36:43.330Z,8.18
2023-04-21T13:39:12.545Z,14.05
2023-04-21T13:41:39.333Z,5.75
2023-04-21T13:44:08.656Z,7.50
2023-04-21T13:46:35.610Z,8.00
2023-04-21T13:49:02.439Z,7.53
2023-04-21T13:51:30.232Z,8.90
2023-04-21T13:53:57.116Z,8.38
2023-04-21T13:56:26.250Z,8.30
2023-04-21T13:58:53.245Z,8.00
2023-04-21T14:01:24.326Z,10.40
2023-04-21T14:03:51.377Z,9.38
2023-04-21T14:06:18.423Z,9.65
2023-04-21T14:08:45.324Z,9.93
2023-04-21T14:11:12.215Z,7.93
2023-04-21T14:13:47.846Z,8.20
2023-04-21T14:16:27.965Z,9.18
2023-04-21T14:18:54.820Z,9.63
2023-04-21T14:21:23.740Z,8.55
2023-04-21T14:23:50.558Z,9.05
2023-04-21T14:26:20.245Z,7.47
2023-04-21T14:28:47.007Z,8.45
2023-04-21T14:31:13.813Z,12.18
2023-04-21T14:33:41.372Z,8.02
2023-04-21T14:36:10.405Z,9.40
2023-04-21T14:38:39.673Z,10.57
2023-04-21T14:41:11.340Z,7.25
2023-04-21T14:43:38.324Z,8.95
2023-04-21T14:46:05.256Z,9.75
2023-04-21T14:48:32.507Z,7.18
2023-04-21T14:50:59.344Z,7.68
2023-04-21T14:53:26.140Z,8.68
2023-04-21T14:55:54.279Z,8.10
2023-04-21T14:58:21.461Z,7.88
2023-04-21T15:00:48.651Z,9.48
2023-04-21T15:03:16.222Z,9.68
2023-04-21T15:05:43.560Z,10.50
2023-04-21T15:08:11.779Z,8.70
2023-04-21T15:10:40.785Z,9.43
2023-04-21T15:13:10.698Z,8.32
2023-04-21T15:15:40.147Z,7.53
2023-04-21T15:18:09.783Z,7.65
2023-04-21T15:20:43.920Z,8.63
2023-04-21T15:23:12.531Z,11.77
2023-04-21T15:25:40.478Z,11.50
2023-04-21T15:28:10.014Z,8.23
2023-04-21T15:30:37.341Z,7.75
2023-04-21T15:33:04.772Z,8.98
2023-04-21T15:35:32.119Z,13.55
2023-04-21T15:37:58.820Z,9.02
2023-04-21T15:40:25.682Z,8.05
2023-04-21T15:42:52.487Z,10.50
2023-04-21T15:45:19.255Z,3.80
2023-04-21T15:47:46.112Z,9.95
2023-04-21T15:50:13.124Z,7.57
2023-04-21T15:52:43.195Z,8.18
2023-04-21T15:55:13.570Z,6.70
2023-04-21T15:57:40.438Z,7.82
2023-04-21T16:00:10.328Z,13.90
2023-04-21T16:02:40.637Z,5.55
2023-04-21T16:05:08.134Z,4.22
2023-04-21T16:07:35.339Z,8.32
2023-04-21T16:10:02.215Z,9.98
2023-04-21T16:12:29.051Z,4.60
2023-04-21T16:15:01.634Z,7.90
2023-04-21T16:17:34.177Z,5.13
2023-04-21T16:20:01.118Z,4.20
2023-04-21T16:22:30.031Z,5.57
2023-04-21T16:24:58.586Z,2.42
2023-04-21T16:27:27.789Z,2.67
2023-04-21T16:29:54.642Z,1.60
2023-04-21T16:32:21.725Z,5.75
2023-04-21T16:34:50.860Z,8.45
2023-04-21T16:37:20.165Z,5.57
2023-04-21T16:39:47.142Z,6.13
2023-04-21T16:42:14.413Z,5.45
2023-04-21T16:44:41.688Z,5.00
2023-04-21T16:47:08.932Z,3.95
2023-04-21T16:49:36.169Z,3.85
2023-04-21T16:52:03.160Z,4.55
2023-04-21T16:54:29.870Z,2.67
2023-04-21T16:56:57.716Z,6.85
2023-04-21T16:59:24.537Z,7.32
2023-04-21T17:01:53.578Z,4.00
2023-04-21T17:04:20.515Z,4.45
2023-04-21T17:06:49.472Z,6.45
2023-04-21T17:09:18.878Z,11.25
2023-04-21T17:11:46.092Z,5.72
2023-04-21T17:14:13.278Z,4.05
2023-04-21T17:16:40.498Z,22.42
2023-04-21T17:19:07.443Z,4.85
2023-04-21T17:21:34.466Z,5.30
2023-04-21T17:24:03.865Z,5.30
2023-04-21T17:26:31.247Z,5.40
2023-04-21T17:28:58.238Z,3.25
2023-04-21T17:31:29.587Z,6.30
2023-04-21T17:33:57.441Z,6.05
2023-04-21T17:36:25.786Z,5.60
2023-04-21T17:38:52.829Z,7.82
2023-04-21T17:41:22.699Z,8.95
2023-04-21T17:43:49.688Z,4.57
2023-04-21T17:46:19.223Z,5.75
2023-04-21T17:48:46.232Z,5.43
2023-04-21T17:51:14.745Z,4.43
2023-04-21T17:53:44.719Z,4.47
2023-04-21T17:56:12.977Z,4.90
2023-04-21T17:58:41.462Z,5.93
2023-04-21T18:01:08.975Z,7.35
2023-04-21T18:03:36.373Z,6.57
2023-04-21T18:06:06.130Z,5.30
2023-04-21T18:08:35.355Z,7.15
2023-04-21T18:11:02.227Z,7.25
2023-04-21T18:13:29.070Z,5.07
2023-04-21T18:15:55.982Z,4.40
2023-04-21T18:18:22.860Z,5.28
2023-04-21T18:20:49.694Z,6.63
2023-04-21T18:23:16.651Z,10.73
2023-04-21T18:25:43.522Z,5.88
2023-04-21T18:28:13.660Z,6.72
2023-04-21T18:30:41.147Z,8.27
2023-04-21T18:33:09.339Z,13.27
2023-04-21T18:35:36.177Z,8.52
2023-04-21T18:38:03.177Z,6.30
2023-04-21T18:40:33.239Z,6.55
2023-04-21T18:43:00.433Z,6.35
2023-04-21T18:45:27.904Z,8.13
2023-04-21T18:47:55.151Z,8.02
2023-04-21T18:50:22.023Z,7.32
2023-04-21T18:52:49.208Z,8.30
2023-04-21T18:55:18.694Z,8.43
2023-04-21T18:57:45.577Z,7.00
2023-04-21T19:00:13.542Z,6.72
2023-04-21T19:02:43.272Z,7.68
2023-04-21T19:05:10.643Z,13.18
2023-04-21T19:07:39.604Z,9.23
2023-04-21T19:10:07.515Z,5.50
2023-04-21T19:12:36.919Z,6.20
2023-04-21T19:15:04.537Z,13.13
2023-04-21T19:17:34.401Z,7.05
2023-04-21T19:20:01.642Z,7.82
2023-04-21T19:22:32.098Z,9.75
2023-04-21T19:24:59.359Z,10.63
2023-04-21T19:27:26.325Z,8.52
2023-04-21T19:29:55.479Z,9.95
2023-04-21T19:32:22.513Z,10.32
2023-04-21T19:34:51.715Z,13.95
2023-04-21T19:37:21.369Z,7.72
2023-04-21T19:39:48.665Z,11.20
2023-04-21T19:42:15.487Z,7.28
2023-04-21T19:44:44.558Z,9.55
2023-04-21T19:47:13.731Z,10.48
2023-04-21T19:49:45.410Z,9.45
2023-04-21T19:52:12.331Z,11.13
2023-04-21T19:54:43.667Z,9.82
2023-04-21T19:57:10.521Z,11.32
2023-04-21T19:59:40.118Z,14.02
2023-04-21T20:02:07.793Z,9.32
2023-04-21T20:04:37.725Z,7.82
2023-04-21T20:07:05.026Z,9.98
2023-04-21T20:09:31.745Z,8.93
2023-04-21T20:11:58.465Z,10.55
2023-04-21T20:14:25.203Z,10.52
2023-04-21T20:16:51.945Z,9.27
2023-04-21T20:19:18.771Z,10.30
2023-04-21T20:21:45.592Z,10.07
2023-04-21T20:24:12.284Z,8.25
2023-04-21T20:26:39.014Z,10.73
2023-04-21T20:29:05.694Z,14.07
2023-04-21T20:31:32.827Z,7.85
2023-04-21T20:34:01.900Z,9.40
2023-04-21T20:36:31.019Z,7.32
2023-04-21T20:38:58.487Z,9.23
2023-04-21T20:41:25.229Z,11.02
2023-04-21T20:43:56.266Z,16.10
2023-04-21T20:46:23.620Z,9.30
2023-04-21T20:48:50.595Z,10.60
2023-04-21T20:51:20.202Z,7.63
2023-04-21T20:53:46.913Z,7.78
2023-04-21T20:56:13.593Z,9.68
2023-04-21T20:58:40.383Z,9.00
2023-04-21T21:01:07.118Z,9.48
2023-04-21T21:03:34.052Z,8.15
2023-04-21T21:06:00.922Z,11.55
2023-04-21T21:08:28.571Z,7.13
2023-04-21T21:10:57.510Z,8.25
2023-04-21T21:13:24.178Z,8.35
2023-04-21T21:15:50.917Z,10.45
2023-04-21T21:18:17.733Z,11.63
2023-04-21T21:20:44.476Z,10.35
2023-04-21T21:23:11.685Z,12.30
2023-04-21T21:25:38.572Z,11.95
2023-04-21T21:28:05.928Z,11.48
2023-04-21T21:30:32.634Z,9.80
2023-04-21T21:32:59.330Z,8.32
2023-04-21T21:35:30.933Z,12.38
2023-04-21T21:37:57.641Z,14.98
2023-04-21T21:40:24.423Z,13.57
2023-04-21T21:42:51.530Z,11.88
2023-04-21T21:45:18.286Z,11.38
2023-04-21T21:47:45.947Z,14.38
2023-04-21T21:50:13.382Z,11.55
2023-04-21T21:52:40.565Z,11.90
2023-04-21T21:55:08.047Z,9.88
2023-04-21T21:57:35.065Z,17.95
2023-04-21T22:00:02.170Z,11.05
2023-04-21T22:02:31.112Z,11.23
2023-04-21T22:04:58.332Z,9.85
2023-04-21T22:07:25.092Z,10.05
2023-04-21T22:09:52.234Z,7.35
2023-04-21T22:12:18.897Z,7.20
2023-04-21T22:14:46.615Z,6.65
2023-04-21T22:17:14.348Z,6.97
2023-04-21T22:19:41.674Z,10.73
2023-04-21T22:22:10.911Z,9.90
2023-04-21T22:24:38.085Z,6.82
2023-04-21T22:27:09.471Z,9.35
2023-04-21T22:29:36.503Z,9.85
2023-04-21T22:32:03.889Z,9.18
2023-04-21T22:34:32.945Z,10.88
2023-04-21T22:36:59.645Z,8.98
2023-04-21T22:39:28.778Z,9.73
2023-04-21T22:41:55.619Z,8.05
2023-04-21T22:44:22.254Z,6.47
2023-04-21T22:46:49.566Z,8.15
2023-04-21T22:49:17.276Z,7.43
2023-04-21T22:51:44.489Z,8.55
2023-04-21T22:54:11.268Z,8.73
2023-04-21T22:56:37.942Z,6.05
2023-04-21T22:59:04.700Z,9.95
2023-04-21T23:01:34.446Z,8.07
2023-04-21T23:04:03.560Z,6.90
2023-04-21T23:06:31.941Z,8.25
2023-04-21T23:08:58.627Z,8.05
2023-04-21T23:11:25.349Z,7.90
2023-04-21T23:13:52.008Z,4.90
2023-04-21T23:16:18.667Z,7.20
2023-04-21T23:18:45.688Z,7.20
2023-04-21T23:21:12.330Z,8.52
2023-04-21T23:23:38.977Z,6.18
2023-04-21T23:26:08.334Z,6.30
2023-04-21T23:28:34.965Z,4.55
2023-04-21T23:31:01.697Z,6.63
2023-04-21T23:33:30.947Z,6.80
2023-04-21T23:35:57.689Z,8.18
2023-04-21T23:38:24.389Z,7.80
2023-04-21T23:40:51.111Z,7.25
2023-04-21T23:43:17.894Z,6.20
2023-04-21T23:45:44.607Z,8.40
2023-04-21T23:48:11.648Z,7.75
2023-04-21T23:50:38.479Z,6.50
2023-04-21T23:53:05.294Z,6.38
2023-04-21T23:55:31.940Z,7.13
2023-04-21T23:57:58.633Z,6.38
